createdAt,value
2018-10-11T00:00:05.331Z,0
2018-10-11T00:00:45.749Z,0
2018-10-11T00:01:26.201Z,0
2018-10-11T00:02:06.544Z,0
2018-10-11T00:02:47.018Z,0
2018-10-11T00:03:27.393Z,0
2018-10-11T00:04:07.842Z,0
2018-10-11T00:04:48.152Z,0
2018-10-11T00:05:28.681Z,0
2018-10-11T00:06:09.281Z,0
2018-10-11T00:06:49.763Z,0
2018-10-11T00:07:30.231Z,0
2018-10-11T00:08:10.511Z,0
2018-10-11T00:08:50.923Z,0
2018-10-11T00:09:31.304Z,0
2018-10-11T00:10:11.624Z,0
2018-10-11T00:10:52.097Z,0
2018-10-11T00:11:32.414Z,0
2018-10-11T00:12:12.836Z,0
2018-10-11T00:12:53.259Z,0
2018-10-11T00:13:33.790Z,0
2018-10-11T00:14:14.188Z,0
2018-10-11T00:14:54.634Z,0
2018-10-11T00:15:34.975Z,0
2018-10-11T00:16:15.395Z,0
2018-10-11T00:16:55.932Z,0
2018-10-11T00:17:36.277Z,0
2018-10-11T00:18:16.688Z,0
2018-10-11T00:18:57.113Z,0
2018-10-11T00:19:37.510Z,0
2018-10-11T00:20:17.826Z,0
2018-10-11T00:20:58.281Z,0
2018-10-11T00:21:38.688Z,0
2018-10-11T00:22:19.048Z,0
2018-10-11T00:22:59.499Z,0
2018-10-11T00:23:39.988Z,0
2018-10-11T00:24:20.359Z,0
2018-10-11T00:25:00.726Z,0
2018-10-11T00:25:41.125Z,0
2018-10-11T00:26:21.532Z,0
2018-10-11T00:27:01.868Z,0
2018-10-11T00:27:42.369Z,0
2018-10-11T00:28:22.779Z,0
2018-10-11T00:29:03.134Z,0
2018-10-11T00:29:43.543Z,0
2018-10-11T00:30:23.903Z,0
2018-10-11T00:31:04.431Z,0
2018-10-11T00:31:44.792Z,0
2018-10-11T00:32:25.140Z,0
2018-10-11T00:33:05.542Z,0
2018-10-11T00:33:45.940Z,0
2018-10-11T00:34:26.248Z,0
2018-10-11T00:35:06.709Z,0
2018-10-11T00:35:47.110Z,0
2018-10-11T00:36:27.554Z,0
2018-10-11T00:37:07.996Z,0
2018-10-11T00:37:48.424Z,0
2018-10-11T00:38:28.864Z,0
2018-10-11T00:39:09.264Z,0
2018-10-11T00:39:49.616Z,0
2018-10-11T00:40:29.973Z,0
2018-10-11T00:41:10.469Z,0
2018-10-11T00:41:50.833Z,0
2018-10-11T00:42:31.281Z,0
2018-10-11T00:43:11.680Z,0
2018-10-11T00:43:52.130Z,0
2018-10-11T00:44:32.492Z,0
2018-10-11T00:45:12.903Z,0
2018-10-11T00:45:53.234Z,0
2018-10-11T00:46:33.640Z,0
2018-10-11T00:47:14.090Z,0
2018-10-11T00:47:54.504Z,0
2018-10-11T00:48:34.872Z,0
2018-10-11T00:49:15.323Z,0
2018-10-11T00:49:55.716Z,0
2018-10-11T00:50:36.240Z,0
2018-10-11T00:51:16.615Z,0
2018-10-11T00:51:56.968Z,0
2018-10-11T00:52:37.419Z,0
2018-10-11T00:53:17.899Z,0
2018-10-11T00:53:58.295Z,0
2018-10-11T00:54:38.568Z,0
2018-10-11T00:55:19.004Z,0
2018-10-11T00:55:59.394Z,0
2018-10-11T00:56:39.779Z,0
2018-10-11T00:57:20.189Z,0
2018-10-11T00:58:00.673Z,0
2018-10-11T00:58:41.180Z,0
2018-10-11T00:59:21.580Z,0
2018-10-11T01:00:01.908Z,0
2018-10-11T01:00:42.429Z,0
2018-10-11T01:01:22.733Z,0
2018-10-11T01:02:03.120Z,0
2018-10-11T01:02:43.593Z,0
2018-10-11T01:03:23.981Z,0
2018-10-11T01:04:04.359Z,0
2018-10-11T01:04:44.820Z,0
2018-10-11T01:05:25.278Z,0
2018-10-11T01:06:05.684Z,0
2018-10-11T01:06:45.967Z,0
2018-10-11T01:07:26.428Z,0
2018-10-11T01:08:06.788Z,0
2018-10-11T01:08:47.245Z,0
2018-10-11T01:09:27.669Z,0
2018-10-11T01:10:08.049Z,0
2018-10-11T01:10:48.348Z,0
2018-10-11T01:11:28.809Z,0
2018-10-11T01:12:09.184Z,0
2018-10-11T01:12:49.577Z,0
2018-10-11T01:13:29.963Z,0
2018-10-11T01:14:10.415Z,0
2018-10-11T01:14:50.861Z,0
2018-10-11T01:15:31.267Z,0
2018-10-11T01:16:11.675Z,0
2018-10-11T01:16:52.154Z,0
2018-10-11T01:17:32.608Z,0
2018-10-11T01:18:13.029Z,0
2018-10-11T01:18:53.490Z,0
2018-10-11T01:19:33.850Z,0
2018-10-11T01:20:14.301Z,0
2018-10-11T01:20:54.707Z,0
2018-10-11T01:21:35.196Z,0
2018-10-11T01:22:15.495Z,0
2018-10-11T01:22:55.967Z,0
2018-10-11T01:23:36.475Z,0
2018-10-11T01:24:16.808Z,0
2018-10-11T01:24:57.163Z,0
2018-10-11T01:25:37.503Z,0
2018-10-11T01:26:17.982Z,0
2018-10-11T01:26:58.378Z,0
2018-10-11T01:27:38.781Z,0
2018-10-11T01:28:19.950Z,0
2018-10-11T01:28:59.572Z,0
2018-10-11T01:29:40.039Z,0
2018-10-11T01:30:20.371Z,0
2018-10-11T01:31:00.767Z,0
2018-10-11T01:31:41.197Z,0
2018-10-11T01:32:21.605Z,0
2018-10-11T01:33:02.033Z,0
2018-10-11T01:33:42.436Z,0
2018-10-11T01:34:22.845Z,0
2018-10-11T01:35:03.262Z,0
2018-10-11T01:35:43.620Z,0
2018-10-11T01:36:24.047Z,0
2018-10-11T01:37:04.484Z,0
2018-10-11T01:37:44.857Z,0
2018-10-11T01:38:25.359Z,0
2018-10-11T01:39:05.712Z,0
2018-10-11T01:39:46.054Z,0
2018-10-11T01:40:26.437Z,0
2018-10-11T01:41:06.937Z,0
2018-10-11T01:41:47.272Z,0
2018-10-11T01:42:27.715Z,0
2018-10-11T01:43:08.154Z,0
2018-10-11T01:43:48.477Z,0
2018-10-11T01:44:28.933Z,0
2018-10-11T01:45:09.301Z,0
2018-10-11T01:45:49.698Z,0
2018-10-11T01:46:30.053Z,0
2018-10-11T01:47:10.454Z,0
2018-10-11T01:47:50.880Z,0
2018-10-11T01:48:31.288Z,0
2018-10-11T01:49:11.692Z,0
2018-10-11T01:49:52.079Z,0
2018-10-11T01:50:32.512Z,0
2018-10-11T01:51:12.897Z,0
2018-10-11T01:51:53.252Z,0
2018-10-11T01:52:33.648Z,0
2018-10-11T01:53:14.088Z,0
2018-10-11T01:53:54.481Z,0
2018-10-11T01:54:34.914Z,0
2018-10-11T01:55:15.274Z,0
2018-10-11T01:55:55.669Z,0
2018-10-11T01:56:36.205Z,0
2018-10-11T01:57:16.538Z,0
2018-10-11T01:57:56.919Z,0
2018-10-11T01:58:37.272Z,0
2018-10-11T01:59:17.730Z,0
2018-10-11T01:59:58.103Z,0
2018-10-11T02:00:38.536Z,0
2018-10-11T02:01:19.011Z,0
2018-10-11T02:01:59.416Z,0
2018-10-11T02:02:39.906Z,0
2018-10-11T02:03:20.201Z,0
2018-10-11T02:04:00.670Z,0
2018-10-11T02:04:41.122Z,0
2018-10-11T02:05:21.513Z,0
2018-10-11T02:06:01.993Z,0
2018-10-11T02:06:42.382Z,0
2018-10-11T02:07:22.698Z,0
2018-10-11T02:08:03.118Z,0
2018-10-11T02:08:43.526Z,0
2018-10-11T02:09:24.121Z,0
2018-10-11T02:10:04.429Z,0
2018-10-11T02:10:44.876Z,0
2018-10-11T02:11:25.204Z,0
2018-10-11T02:12:05.590Z,0
2018-10-11T02:12:46.009Z,0
2018-10-11T02:13:26.375Z,0
2018-10-11T02:14:06.910Z,0
2018-10-11T02:14:47.331Z,0
2018-10-11T02:15:27.723Z,0
2018-10-11T02:16:08.084Z,0
2018-10-11T02:16:48.510Z,0
2018-10-11T02:17:28.928Z,0
2018-10-11T02:18:09.341Z,0
2018-10-11T02:18:49.793Z,0
2018-10-11T02:19:30.160Z,0
2018-10-11T02:20:10.553Z,0
2018-10-11T02:20:51.106Z,0
2018-10-11T02:21:31.609Z,0
2018-10-11T02:22:11.800Z,0
2018-10-11T02:22:52.204Z,0
2018-10-11T02:23:32.612Z,0
2018-10-11T02:24:13.053Z,0
2018-10-11T02:24:53.451Z,0
2018-10-11T02:25:33.803Z,0
2018-10-11T02:26:14.266Z,0
2018-10-11T02:26:54.679Z,0
2018-10-11T02:27:35.966Z,0
2018-10-11T02:28:15.704Z,0
2018-10-11T02:28:55.875Z,0
2018-10-11T02:29:36.335Z,0
2018-10-11T02:30:16.966Z,0
2018-10-11T02:30:57.227Z,0
2018-10-11T02:31:37.639Z,0
2018-10-11T02:32:18.001Z,0
2018-10-11T02:32:58.430Z,0
2018-10-11T02:33:39.513Z,0
2018-10-11T02:34:19.800Z,0
2018-10-11T02:35:00.270Z,0
2018-10-11T02:35:40.623Z,0
2018-10-11T02:36:21.126Z,0
2018-10-11T02:37:01.463Z,0
2018-10-11T02:37:41.863Z,0
2018-10-11T02:38:22.368Z,0
2018-10-11T02:39:02.723Z,0
2018-10-11T02:39:43.157Z,0
2018-10-11T02:40:23.563Z,0
2018-10-11T02:41:04.030Z,0
2018-10-11T02:41:44.427Z,0
2018-10-11T02:42:24.830Z,0
2018-10-11T02:43:05.241Z,0
2018-10-11T02:43:45.695Z,0
2018-10-11T02:44:26.140Z,0
2018-10-11T02:45:06.590Z,0
2018-10-11T02:45:46.955Z,0
2018-10-11T02:46:27.500Z,0
2018-10-11T02:47:07.907Z,0
2018-10-11T02:47:48.326Z,0
2018-10-11T02:48:28.748Z,0
2018-10-11T02:49:09.227Z,0
2018-10-11T02:49:49.732Z,0
2018-10-11T02:50:30.169Z,0
2018-10-11T02:51:10.502Z,0
2018-10-11T02:51:50.996Z,0
2018-10-11T02:52:31.452Z,0
2018-10-11T02:53:11.853Z,0
2018-10-11T02:53:52.289Z,0
2018-10-11T02:54:32.707Z,0
2018-10-11T02:55:13.072Z,0
2018-10-11T02:55:53.487Z,0
2018-10-11T02:56:33.966Z,0
2018-10-11T02:57:14.319Z,0
2018-10-11T02:57:54.737Z,0
2018-10-11T02:58:35.263Z,0
2018-10-11T02:59:15.554Z,0
2018-10-11T02:59:55.932Z,0
2018-10-11T03:00:36.370Z,0
2018-10-11T03:01:16.770Z,0
2018-10-11T03:01:57.316Z,0
2018-10-11T03:02:37.541Z,0
2018-10-11T03:03:18.111Z,0
2018-10-11T03:03:58.603Z,0
2018-10-11T03:04:38.908Z,0
2018-10-11T03:05:19.393Z,0
2018-10-11T03:05:59.735Z,0
2018-10-11T03:06:40.257Z,0
2018-10-11T03:07:20.573Z,0
2018-10-11T03:08:01.035Z,0
2018-10-11T03:08:41.426Z,0
2018-10-11T03:09:21.908Z,0
2018-10-11T03:10:02.379Z,0
2018-10-11T03:10:42.832Z,0
2018-10-11T03:11:23.180Z,0
2018-10-11T03:12:03.711Z,0
2018-10-11T03:12:44.154Z,0
2018-10-11T03:13:24.621Z,0
2018-10-11T03:14:04.960Z,0
2018-10-11T03:14:45.413Z,0
2018-10-11T03:15:25.760Z,0
2018-10-11T03:16:06.167Z,0
2018-10-11T03:16:46.610Z,0
2018-10-11T03:17:27.012Z,0
2018-10-11T03:18:07.567Z,0
2018-10-11T03:18:48.079Z,0
2018-10-11T03:19:28.466Z,0
2018-10-11T03:20:08.908Z,0
2018-10-11T03:20:49.491Z,0
2018-10-11T03:21:29.926Z,0
2018-10-11T03:22:10.327Z,0
2018-10-11T03:22:50.706Z,0
2018-10-11T03:23:31.176Z,0
2018-10-11T03:24:11.614Z,0
2018-10-11T03:24:52.484Z,0
2018-10-11T03:25:32.401Z,0
2018-10-11T03:26:12.858Z,0
2018-10-11T03:26:53.271Z,0
2018-10-11T03:27:33.748Z,0
2018-10-11T03:28:14.471Z,0
2018-10-11T03:28:54.940Z,0
2018-10-11T03:29:35.355Z,0
2018-10-11T03:30:15.847Z,0
2018-10-11T03:30:56.203Z,0
2018-10-11T03:31:36.565Z,0
2018-10-11T03:32:17.007Z,0
2018-10-11T03:32:57.357Z,0
2018-10-11T03:33:37.772Z,0
2018-10-11T03:34:18.416Z,0
2018-10-11T03:34:58.799Z,0
2018-10-11T03:35:39.086Z,0
2018-10-11T03:36:19.705Z,0
2018-10-11T03:37:00.077Z,0
2018-10-11T03:37:40.508Z,0
2018-10-11T03:38:20.883Z,0
2018-10-11T03:39:01.328Z,0
2018-10-11T03:39:41.713Z,0
2018-10-11T03:40:22.132Z,0
2018-10-11T03:41:02.685Z,0
2018-10-11T03:41:43.771Z,0
2018-10-11T03:42:24.217Z,0
2018-10-11T03:43:04.547Z,0
2018-10-11T03:43:44.990Z,0
2018-10-11T03:44:25.538Z,0
2018-10-11T03:45:05.914Z,0
2018-10-11T03:45:46.314Z,0
2018-10-11T03:46:26.746Z,0
2018-10-11T03:47:07.108Z,0
2018-10-11T03:47:47.504Z,0
2018-10-11T03:48:27.959Z,0
2018-10-11T03:49:08.324Z,0
2018-10-11T03:49:48.692Z,0
2018-10-11T03:50:29.114Z,0
2018-10-11T03:51:09.512Z,0
2018-10-11T03:51:49.885Z,0
2018-10-11T03:52:30.283Z,0
2018-10-11T03:53:10.727Z,0
2018-10-11T03:53:51.041Z,0
2018-10-11T03:54:31.482Z,0
2018-10-11T03:55:11.908Z,0
2018-10-11T03:55:52.273Z,0
2018-10-11T03:56:32.693Z,0
2018-10-11T03:57:13.109Z,0
2018-10-11T03:57:53.519Z,0
2018-10-11T03:58:33.872Z,0
2018-10-11T03:59:14.387Z,0
2018-10-11T03:59:54.769Z,0
2018-10-11T04:00:35.191Z,0
2018-10-11T04:01:15.614Z,0
2018-10-11T04:01:55.999Z,0
2018-10-11T04:02:36.353Z,0
2018-10-11T04:03:16.724Z,0
2018-10-11T04:03:57.207Z,0
2018-10-11T04:04:37.554Z,0
2018-10-11T04:05:17.976Z,0
2018-10-11T04:05:58.331Z,0
2018-10-11T04:06:38.777Z,0
2018-10-11T04:07:19.134Z,0
2018-10-11T04:07:59.610Z,0
2018-10-11T04:08:40.007Z,0
2018-10-11T04:09:20.424Z,0
2018-10-11T04:10:00.828Z,0
2018-10-11T04:10:41.191Z,0
2018-10-11T04:11:21.697Z,0
2018-10-11T04:12:02.056Z,0
2018-10-11T04:12:42.432Z,0
2018-10-11T04:13:22.831Z,0
2018-10-11T04:14:03.270Z,0
2018-10-11T04:14:43.758Z,0
2018-10-11T04:15:24.160Z,0
2018-10-11T04:16:04.539Z,0
2018-10-11T04:16:45.046Z,0
2018-10-11T04:17:25.442Z,0
2018-10-11T04:18:05.818Z,0
2018-10-11T04:18:46.294Z,0
2018-10-11T04:19:26.678Z,0
2018-10-11T04:20:07.151Z,0
2018-10-11T04:20:47.590Z,0
2018-10-11T04:21:28.032Z,0
2018-10-11T04:22:08.399Z,0
2018-10-11T04:22:48.812Z,0
2018-10-11T04:23:29.209Z,0
2018-10-11T04:24:09.759Z,0
2018-10-11T04:24:50.324Z,0
2018-10-11T04:25:30.683Z,0
2018-10-11T04:26:11.265Z,0
2018-10-11T04:26:51.781Z,0
2018-10-11T05:06:55.192Z,0
2018-10-11T05:09:34.073Z,0
2018-10-11T05:10:14.390Z,0
2018-10-11T05:10:54.736Z,0
2018-10-11T05:11:35.137Z,0
2018-10-11T05:12:15.544Z,0
2018-10-11T05:12:55.955Z,0
2018-10-11T05:13:36.397Z,0
2018-10-11T05:14:16.770Z,0
2018-10-11T05:14:57.167Z,0
2018-10-11T05:15:37.631Z,0
2018-10-11T05:16:18.128Z,0
2018-10-11T05:25:18.537Z,0
2018-10-11T05:25:58.984Z,0
2018-10-11T05:26:39.543Z,0
2018-10-11T05:27:20.021Z,0
2018-10-11T05:28:00.436Z,0
2018-10-11T05:28:41.878Z,0
2018-10-11T05:34:13.324Z,0
2018-10-11T05:34:53.692Z,0
2018-10-11T05:35:34.228Z,0
2018-10-11T05:36:14.580Z,0
2018-10-11T05:36:55.125Z,0
2018-10-11T05:37:35.542Z,0
2018-10-11T05:38:16.091Z,0
2018-10-11T05:38:56.987Z,0
2018-10-11T05:39:38.246Z,0
2018-10-11T05:45:40.272Z,0
2018-10-11T05:46:51.953Z,0
2018-10-11T05:49:33.805Z,0
2018-10-11T05:50:26.445Z,0
2018-10-11T05:51:19.588Z,0
2018-10-11T05:54:09.684Z,5
2018-10-11T05:54:50.119Z,5
2018-10-11T05:57:11.154Z,10
2018-10-11T05:57:51.555Z,5
2018-10-11T05:58:32.166Z,10
2018-10-11T05:59:12.620Z,10
2018-10-11T05:59:53.150Z,10
2018-10-11T06:00:33.517Z,10
2018-10-11T06:01:13.998Z,10
2018-10-11T06:01:54.658Z,10
2018-10-11T06:02:35.076Z,15
2018-10-11T06:03:15.601Z,15
2018-10-11T06:03:56.138Z,15
2018-10-11T06:04:36.606Z,20
2018-10-11T06:05:17.156Z,30
2018-10-11T06:05:57.573Z,35
2018-10-11T06:06:38.323Z,40
2018-10-11T06:07:18.775Z,40
2018-10-11T06:07:59.246Z,45
2018-10-11T06:08:39.852Z,45
2018-10-11T06:09:20.313Z,50
2018-10-11T06:10:00.928Z,55
2018-10-11T06:12:47.764Z,65
2018-10-11T06:13:41.129Z,70
2018-10-11T06:14:36.388Z,80
2018-10-11T06:15:28.825Z,85
2018-10-11T06:16:20.902Z,90
2018-10-11T06:20:43.323Z,140
2018-10-11T06:21:23.722Z,145
2018-10-11T06:29:58.580Z,110
2018-10-11T06:30:50.958Z,75
2018-10-11T06:31:43.795Z,60
2018-10-11T06:32:37.250Z,60
2018-10-11T06:33:30.133Z,55
2018-10-11T06:34:23.011Z,60
2018-10-11T06:35:17.845Z,60
2018-10-11T06:36:11.470Z,65
2018-10-11T06:37:04.222Z,65
2018-10-11T06:37:57.070Z,65
2018-10-11T06:38:49.430Z,65
2018-10-11T06:39:42.859Z,70
2018-10-11T06:40:37.776Z,70
2018-10-11T06:43:11.657Z,70
2018-10-11T06:44:04.963Z,75
2018-10-11T06:44:58.365Z,75
2018-10-11T06:45:50.686Z,75
2018-10-11T06:46:42.967Z,75
2018-10-11T06:47:35.354Z,75
2018-10-11T06:48:27.458Z,75
2018-10-11T06:49:20.036Z,80
2018-10-11T06:50:12.675Z,80
2018-10-11T06:51:04.774Z,80
2018-10-11T06:52:02.468Z,80
2018-10-11T06:52:54.875Z,80
2018-10-11T06:53:55.907Z,85
2018-10-11T06:56:29.763Z,85
2018-10-11T06:57:10.285Z,85
2018-10-11T06:57:50.834Z,85
2018-10-11T06:58:31.220Z,90
2018-10-11T06:59:11.598Z,90
2018-10-11T06:59:52.035Z,90
2018-10-11T07:02:31.130Z,95
2018-10-11T07:03:19.823Z,95
2018-10-11T07:04:13.263Z,95
2018-10-11T07:05:08.692Z,95
2018-10-11T07:06:03.725Z,95
2018-10-11T07:06:56.647Z,100
2018-10-11T07:07:49.541Z,100
2018-10-11T07:08:42.213Z,100
2018-10-11T07:09:34.711Z,100
2018-10-11T07:10:27.096Z,95
2018-10-11T07:11:19.541Z,95
2018-10-11T07:12:11.644Z,90
2018-10-11T07:13:03.637Z,85
2018-10-11T07:13:56.139Z,85
2018-10-11T07:14:48.647Z,85
2018-10-11T07:17:52.922Z,80
2018-10-11T07:18:46.276Z,80
2018-10-11T07:19:39.269Z,80
2018-10-11T07:20:32.329Z,80
2018-10-11T07:21:25.181Z,80
2018-10-11T07:22:17.609Z,80
2018-10-11T07:23:10.051Z,80
2018-10-11T07:24:04.128Z,80
2018-10-11T07:24:58.164Z,80
2018-10-11T07:25:50.392Z,80
2018-10-11T07:26:43.586Z,80
2018-10-11T07:27:36.983Z,80
2018-10-11T07:28:29.473Z,75
2018-10-11T07:29:21.995Z,75
2018-10-11T07:31:56.575Z,70
2018-10-11T07:32:48.786Z,70
2018-10-11T07:33:41.363Z,70
2018-10-11T07:34:33.809Z,70
2018-10-11T07:35:27.072Z,70
2018-10-11T07:36:21.452Z,70
2018-10-11T07:37:18.449Z,70
2018-10-11T07:38:12.931Z,70
2018-10-11T07:39:06.872Z,70
2018-10-11T07:42:03.612Z,70
2018-10-11T07:42:59.351Z,65
2018-10-11T07:43:53.056Z,65
2018-10-11T07:44:47.819Z,65
2018-10-11T07:45:40.437Z,65
2018-10-11T07:46:35.705Z,65
2018-10-11T07:47:29.825Z,65
2018-10-11T07:48:24.326Z,65
2018-10-11T07:49:16.925Z,65
2018-10-11T07:50:19.805Z,70
2018-10-11T07:51:15.590Z,70
2018-10-11T07:52:09.262Z,70
2018-10-11T07:53:02.430Z,70
2018-10-11T07:53:55.220Z,70
2018-10-11T07:54:47.773Z,70
2018-10-11T07:55:44.617Z,70
2018-10-11T07:56:41.892Z,70
2018-10-11T07:57:35.556Z,70
2018-10-11T07:58:22.204Z,70
2018-10-11T07:59:05.571Z,70
2018-10-11T07:59:48.361Z,70
2018-10-11T08:00:30.491Z,65
2018-10-11T08:01:11.512Z,70
2018-10-11T08:01:56.252Z,70
2018-10-11T08:04:32.921Z,60
2018-10-11T08:05:30.457Z,50
2018-10-11T08:06:27.291Z,70
2018-10-11T08:07:21.061Z,60
2018-10-11T08:08:17.875Z,50
2018-10-11T08:09:14.219Z,45
2018-10-11T08:10:10.469Z,45
2018-10-11T08:11:03.233Z,40
2018-10-11T08:11:55.634Z,40
2018-10-11T08:12:51.090Z,40
2018-10-11T08:13:45.356Z,40
2018-10-11T08:14:39.362Z,40
2018-10-11T08:15:33.816Z,45
2018-10-11T08:16:39.463Z,45
2018-10-11T08:17:42.031Z,45
2018-10-11T08:18:38.037Z,45
2018-10-11T08:19:34.940Z,45
2018-10-11T08:20:30.306Z,45
2018-10-11T08:21:23.322Z,45
2018-10-11T08:22:18.840Z,45
2018-10-11T08:23:15.471Z,45
2018-10-11T08:24:11.843Z,45
2018-10-11T08:25:07.084Z,45
2018-10-11T08:26:00.389Z,45
2018-10-11T08:26:53.340Z,45
2018-10-11T08:30:03.597Z,45
2018-10-11T08:30:44.325Z,45
2018-10-11T08:31:30.223Z,45
2018-10-11T08:32:11.440Z,45
2018-10-11T08:32:52.736Z,45
2018-10-11T08:33:33.439Z,45
2018-10-11T08:41:16.374Z,60
2018-10-11T08:44:24.227Z,65
2018-10-11T08:49:20.600Z,55
2018-10-11T08:50:25.349Z,55
2018-10-11T09:18:59.529Z,60
2018-10-11T09:19:40.009Z,60
2018-10-11T09:20:20.452Z,60
2018-10-11T09:21:01.076Z,60
2018-10-11T09:21:41.759Z,55
2018-10-11T09:22:22.271Z,55
2018-10-11T09:23:03.387Z,55
2018-10-11T09:23:43.815Z,55
2018-10-11T09:24:24.206Z,50
2018-10-11T09:25:04.749Z,50
2018-10-11T09:25:45.135Z,50
2018-10-11T09:26:26.336Z,45
2018-10-11T09:27:06.839Z,50
2018-10-11T09:27:47.184Z,55
2018-10-11T09:28:27.577Z,55
2018-10-11T09:29:08.066Z,55
2018-10-11T09:29:48.452Z,55
2018-10-11T09:30:28.972Z,55
2018-10-11T09:31:09.300Z,55
2018-10-11T09:31:49.837Z,55
2018-10-11T09:32:30.231Z,60
2018-10-11T09:33:10.733Z,60
2018-10-11T09:33:51.324Z,60
2018-10-11T09:34:31.940Z,55
2018-10-11T09:35:12.396Z,55
2018-10-11T09:35:53.034Z,55
2018-10-11T09:36:33.677Z,55
2018-10-11T09:37:15.639Z,60
2018-10-11T09:37:54.966Z,60
2018-10-11T09:38:36.620Z,60
2018-10-11T09:39:18.567Z,60
2018-10-11T09:39:58.711Z,65
2018-10-11T09:40:39.258Z,60
2018-10-11T09:41:19.863Z,55
2018-10-11T09:42:00.367Z,60
2018-10-11T09:42:41.376Z,55
2018-10-11T09:43:21.947Z,55
2018-10-11T09:44:02.573Z,55
2018-10-11T09:44:43.234Z,55
2018-10-11T09:45:24.790Z,55
2018-10-11T09:46:05.235Z,55
2018-10-11T09:46:45.825Z,55
2018-10-11T09:47:26.322Z,55
2018-10-11T09:50:03.720Z,50
2018-10-11T09:50:46.866Z,50
2018-10-11T09:51:26.940Z,55
2018-10-11T09:52:07.500Z,55
2018-10-11T09:52:47.841Z,55
2018-10-11T09:53:28.402Z,50
2018-10-11T09:55:44.572Z,55
2018-10-11T09:56:27.576Z,55
2018-10-11T09:57:08.168Z,55
2018-10-11T09:57:48.903Z,55
2018-10-11T09:58:29.841Z,55
2018-10-11T09:59:10.203Z,55
2018-10-11T09:59:53.175Z,55
2018-10-11T10:00:33.544Z,50
2018-10-11T10:01:16.646Z,50
2018-10-11T10:02:04.665Z,55
2018-10-11T10:02:57.184Z,55
2018-10-11T10:03:43.523Z,55
2018-10-11T10:04:26.668Z,60
2018-10-11T10:05:09.329Z,55
2018-10-11T10:05:54.090Z,65
2018-10-11T10:06:37.735Z,60
2018-10-11T10:07:18.485Z,60
2018-10-11T10:07:59.768Z,55
2018-10-11T10:08:40.145Z,65
2018-10-11T10:09:21.735Z,65
2018-10-11T10:10:23.979Z,65
2018-10-11T10:11:04.384Z,60
2018-10-11T10:11:46.037Z,65
2018-10-11T10:12:28.703Z,70
2018-10-11T10:13:14.573Z,70
2018-10-11T10:18:10.576Z,60
2018-10-11T10:21:10.691Z,65
2018-10-11T11:26:36.553Z,45
2018-10-11T11:27:17.015Z,45
2018-10-11T11:27:57.593Z,45
2018-10-11T11:28:41.686Z,45
2018-10-11T11:29:22.194Z,45
2018-10-11T11:30:02.969Z,45
2018-10-11T11:30:43.615Z,45
2018-10-11T11:31:25.150Z,45
2018-10-11T11:32:08.580Z,45
2018-10-11T11:32:48.427Z,45
2018-10-11T11:33:29.031Z,45
2018-10-11T11:34:11.710Z,45
2018-10-11T11:49:19.471Z,40
2018-10-11T11:49:59.877Z,40
2018-10-11T11:50:40.602Z,40
2018-10-11T11:51:21.725Z,40
2018-10-11T11:52:02.229Z,35
2018-10-11T11:52:44.634Z,35
2018-10-11T11:53:25.625Z,35
2018-10-11T11:54:06.218Z,35
2018-10-11T11:54:46.696Z,35
2018-10-11T11:55:27.208Z,30
2018-10-11T11:56:08.028Z,30
2018-10-11T11:56:48.448Z,30
2018-10-11T11:57:29.323Z,30
2018-10-11T11:58:10.201Z,30
2018-10-11T11:58:55.542Z,30
2018-10-11T11:59:33.139Z,30
2018-10-11T12:00:13.620Z,30
2018-10-11T12:00:54.407Z,30
2018-10-11T12:01:34.823Z,30
2018-10-11T12:02:15.412Z,30
2018-10-11T12:02:57.791Z,30
2018-10-11T12:03:38.398Z,30
2018-10-11T12:04:19.030Z,30
2018-10-11T12:05:00.985Z,30
2018-10-11T12:05:42.001Z,30
2018-10-11T12:06:22.565Z,30
2018-10-11T12:07:03.540Z,30
2018-10-11T12:07:43.845Z,30
2018-10-11T12:08:24.731Z,30
2018-10-11T12:09:29.008Z,30
2018-10-11T12:10:22.645Z,30
2018-10-11T12:11:03.190Z,30
2018-10-11T12:11:44.038Z,30
2018-10-11T12:12:25.324Z,30
2018-10-11T12:13:08.252Z,30
2018-10-11T12:13:49.374Z,30
2018-10-11T12:14:30.076Z,30
2018-10-11T12:15:10.696Z,30
2018-10-11T12:15:52.710Z,30
2018-10-11T12:16:33.459Z,30
2018-10-11T12:17:17.118Z,30
2018-10-11T12:17:57.802Z,30
2018-10-11T12:18:38.427Z,30
2018-10-11T12:19:19.054Z,30
2018-10-11T12:20:00.032Z,30
2018-10-11T12:20:41.853Z,30
2018-10-11T12:21:21.922Z,30
2018-10-11T12:22:02.561Z,30
2018-10-11T12:22:43.437Z,30
2018-10-11T12:23:24.688Z,30
2018-10-11T12:24:05.545Z,30
2018-10-11T12:24:47.164Z,30
2018-10-11T12:25:27.567Z,30
2018-10-11T12:26:08.968Z,30
2018-10-11T12:26:50.463Z,25
2018-10-11T12:29:23.651Z,25
2018-10-11T12:30:18.085Z,25
2018-10-11T12:31:08.262Z,25
2018-10-11T12:31:48.500Z,25
2018-10-11T12:32:33.638Z,25
2018-10-11T12:33:23.234Z,25
2018-10-11T12:34:06.682Z,25
2018-10-11T12:34:47.403Z,25
2018-10-11T12:35:27.839Z,25
2018-10-11T12:36:18.337Z,25
2018-10-11T12:36:58.771Z,25
2018-10-11T12:37:39.782Z,25
2018-10-11T12:38:23.249Z,25
2018-10-11T12:41:16.906Z,30
2018-10-11T12:44:27.502Z,30
2018-10-11T12:47:20.524Z,25
2018-10-11T12:48:07.820Z,25
2018-10-11T12:48:48.424Z,25
2018-10-11T12:49:29.002Z,25
2018-10-11T12:50:09.291Z,25
2018-10-11T12:50:49.742Z,25
2018-10-11T12:51:30.491Z,25
2018-10-11T12:52:11.600Z,25
2018-10-11T12:52:53.597Z,25
2018-10-11T12:53:34.109Z,25
2018-10-11T12:54:14.815Z,25
2018-10-11T12:54:55.229Z,25
2018-10-11T12:55:36.008Z,30
2018-10-11T12:56:16.459Z,30
2018-10-11T12:57:28.479Z,30
2018-10-11T12:58:31.208Z,30
2018-10-11T12:59:31.470Z,30
2018-10-11T13:18:30.770Z,30
2018-10-11T13:23:57.512Z,25
2018-10-11T13:24:44.762Z,25
2018-10-11T13:25:20.352Z,25
2018-10-11T13:26:01.675Z,25
2018-10-11T13:26:44.674Z,25
2018-10-11T13:27:24.843Z,25
2018-10-11T13:28:07.181Z,25
2018-10-11T13:28:47.257Z,25
2018-10-11T13:29:29.654Z,25
2018-10-11T13:30:11.186Z,25
2018-10-11T13:30:52.711Z,25
2018-10-11T13:31:33.824Z,25
2018-10-11T13:32:14.298Z,25
2018-10-11T13:32:55.043Z,25
2018-10-11T13:33:36.258Z,25
2018-10-11T13:34:17.005Z,25
2018-10-11T13:34:57.871Z,25
2018-10-11T13:35:38.374Z,25
2018-10-11T13:36:19.261Z,25
2018-10-11T13:36:59.921Z,25
2018-10-11T13:37:41.157Z,25
2018-10-11T13:38:22.198Z,25
2018-10-11T13:39:04.360Z,25
2018-10-11T13:39:52.023Z,25
2018-10-11T13:40:25.889Z,25
2018-10-11T13:41:07.126Z,25
2018-10-11T13:43:27.424Z,30
2018-10-11T13:44:08.269Z,30
2018-10-11T13:44:49.183Z,30
2018-10-11T13:45:30.037Z,30
2018-10-11T13:46:10.298Z,30
2018-10-11T13:46:51.133Z,30
2018-10-11T13:47:36.458Z,30
2018-10-11T13:48:19.203Z,30
2018-10-11T13:49:01.559Z,30
2018-10-11T13:49:43.880Z,30
2018-10-11T13:50:24.410Z,30
2018-10-11T13:51:05.077Z,30
2018-10-11T13:51:46.171Z,30
2018-10-11T13:52:27.114Z,30
2018-10-11T13:53:08.353Z,30
2018-10-11T13:53:53.130Z,30
2018-10-11T13:54:28.781Z,30
2018-10-11T13:55:12.153Z,30
2018-10-11T13:55:53.617Z,30
2018-10-11T13:56:30.435Z,30
2018-10-11T13:57:10.752Z,30
2018-10-11T13:57:51.376Z,30
2018-10-11T14:08:16.737Z,35
2018-10-11T14:08:57.998Z,35
2018-10-11T14:09:38.558Z,35
2018-10-11T14:10:19.172Z,35
2018-10-11T14:11:00.030Z,35
2018-10-11T14:11:40.508Z,30
2018-10-11T14:12:25.166Z,30
2018-10-11T14:13:03.049Z,30
2018-10-11T14:13:43.412Z,35
2018-10-11T14:14:25.266Z,35
2018-10-11T14:15:05.683Z,35
2018-10-11T14:15:46.117Z,35
2018-10-11T14:16:26.657Z,35
2018-10-11T14:17:07.790Z,35
2018-10-11T14:17:49.311Z,35
2018-10-11T14:18:34.007Z,35
2018-10-11T14:21:05.041Z,35
2018-10-11T14:21:54.951Z,30
2018-10-11T14:22:35.914Z,30
2018-10-11T14:23:16.769Z,30
2018-10-11T14:23:57.060Z,30
2018-10-11T14:24:40.058Z,30
2018-10-11T14:25:20.943Z,25
2018-10-11T14:26:04.466Z,25
2018-10-11T14:26:53.685Z,25
2018-10-11T14:27:34.109Z,25
2018-10-11T14:28:15.435Z,25
2018-10-11T14:28:55.917Z,25
2018-10-11T14:29:36.709Z,25
2018-10-11T14:30:17.160Z,25
2018-10-11T14:30:57.648Z,25
2018-10-11T14:31:38.399Z,25
2018-10-11T14:32:19.401Z,25
2018-10-11T14:32:59.950Z,25
2018-10-11T14:33:40.559Z,20
2018-10-11T14:34:21.504Z,20
2018-10-11T14:35:02.598Z,20
2018-10-11T14:35:43.171Z,20
2018-10-11T14:36:24.739Z,20
2018-10-11T14:37:05.269Z,20
2018-10-11T14:37:45.897Z,20
2018-10-11T14:38:26.299Z,20
2018-10-11T14:39:08.828Z,20
2018-10-11T14:39:50.253Z,20
2018-10-11T14:40:30.777Z,20
2018-10-11T14:41:11.400Z,20
2018-10-11T14:41:54.108Z,20
2018-10-11T14:42:37.996Z,20
2018-10-11T14:45:00.097Z,20
2018-10-11T14:45:40.413Z,20
2018-10-11T14:46:21.584Z,20
2018-10-11T14:47:03.594Z,20
2018-10-11T14:47:42.360Z,15
2018-10-11T14:48:22.855Z,15
2018-10-11T14:49:05.074Z,15
2018-10-11T14:49:46.591Z,15
2018-10-11T14:50:26.255Z,15
2018-10-11T14:51:06.762Z,15
2018-10-11T14:51:48.722Z,15
2018-10-11T14:52:28.548Z,15